LICRLICC

Guest
Details From LICR - Reggio Calabria
To LICC - Catania Fontanarossa
Flight Number -
Tags generated
Created
Modified
Stats Distance 46 nm / 85 km
Max Altitude 4,600 ft / 1,402 m
Waypoints 3
Social Downloads 5
Likes 0
Share

Download

Looking for another format? Having issues loading an existing format? Contact us
Advertisement - Login to hide

Notes

Basic altitude profile: - Ascent Rate: 2500ft/min - Ascent Speed: 250kts - Cruise Altitude: 35000ft - Cruise Speed: 420kts - Descent Rate: 1500ft/min - Descent Speed: 250kts Options: - Use NATs: yes - Use PACOTS: yes - Use low airways: yes - Use high airways: yes

Route

LICR DIVAR LICC

ID Type Via Altitude (ft/m) Position (lat/lon) Dist (leg/tot) Name
O LICR APT - 0 / 0 38.07257 / 15.64932 - / 0 nm Reggio Calabria
DIVAR FIX - 4,600 / 1,402 37.77167 / 15.31222 24 / 24 nm
O LICC APT - 0 / 0 37.46678 / 15.06640 21 / 45 nm Catania Fontanarossa

Altitude Profile

Advertisement - Login to hide

LICR

Details ICAO LICR (REG)
Name Reggio Calabria "Tito Minniti"
Region Italy
Timezone Europe/Rome (UTC+2.0)
Stats Elevation 96 ft / 29 m (AMSL)
Location 38.072800° 15.649300°
Runways 2
Magnetic Variation 3.676° E

METAR

LICR 081920Z AUTO 36007KT 9999 NCD 19/12 Q1018

Decode

TAF

TAF LICR 081700Z 0818/0918 35015KT CAVOK BECMG 0822/0824 VRB05KT BECMG 0908/0910 20010KT

Decode

Departure Runways

ID Width Length Bearing (true/mag) Surface Threshold Overrun Markings Lighting
11 148 ft / 45 m 5,579 ft / 1,701 m 112.65° / 108.97° ASPHALT 0 ft / 0 m 0 ft / 0 m VISUAL EDGE THRESHOLD REIL-OMNI
15 148 ft / 45 m 6,561 ft / 2,000 m 152.90° / 149.22° ASPHALT 820 ft / 250 m 0 ft / 0 m PREC-APP EDGE THRESHOLD MALSF REIL-OMNI
29 148 ft / 45 m 5,579 ft / 1,701 m 292.66° / 288.98° ASPHALT 0 ft / 0 m 0 ft / 0 m VISUAL EDGE THRESHOLD REIL-OMNI
33 148 ft / 45 m 6,561 ft / 2,000 m 332.90° / 329.23° ASPHALT 164 ft / 50 m 0 ft / 0 m PREC-APP EDGE THRESHOLD MALSF REIL-OMNI

LICC

Details ICAO LICC (CTA)
Name Catania-Fontanarossa "Vincenzo Bellini"
Region Italy
Timezone Europe/Rome (UTC+2.0)
Stats Elevation 39 ft / 12 m (AMSL)
Location 37.466800° 15.066400°
Runways 1
Magnetic Variation 3.543° E

METAR

LICC 081920Z 04012KT CAVOK 20/13 Q1017

Decode

TAF

TAF LICC 081700Z 0818/0918 VRB05KT CAVOK BECMG 0910/0912 10012KT

Decode

Destination Runways

ID Width Length Bearing (true/mag) Surface Threshold Overrun Markings Lighting
08 148 ft / 45 m 8,000 ft / 2,438 m 83.93° / 80.39° ASPHALT 308 ft / 94 m 0 ft / 0 m PREC-APP CENTERLINE EDGE THRESHOLD MALSF REIL-OMNI
26 148 ft / 45 m 8,000 ft / 2,438 m 263.95° / 260.40° ASPHALT 285 ft / 87 m 0 ft / 0 m PREC-APP CENTERLINE EDGE THRESHOLD MALSF REIL-OMNI

Approach Navaids

Runway Type Ident Frequency Range Bearing (true/mag) Slope Elevation
08 DME CTN 109.90 MHz 18 nm / 33 km - - 45 ft / 14 m (AMSL)
08 LOC-ILS CTN 109.90 MHz 18 nm / 33 km 83.95° / 80.41 ° - 39 ft / 12 m (AMSL)
08 GS CTN 109.90 MHz 10 nm / 19 km 83.95° / 80.41 ° 3.00° 39 ft / 12 m (AMSL)

Popular Alternatives